KRIL/RIL METAR and TAF weather

Enter ICAO airport designator
Station Type Date Time Source
KRIL METAR 2021/09/24 01:53 UTC NOAA

KRIL 240153Z AUTO 26004KT 10SM CLR 21/M03 A3009 RMK AO2 SLP146 T02061028


Station Type Date Time Source
KRIL Decoded METAR 2021/09/24 01:53 UTC NOAA

RIFLE GARFIELD COUNTY RGNL, CO, United States (KRIL) 39-31N 107-44W 1678M
Sep 23, 2021 - 09:53 PM EDT / 2021.09.24 0153 UTC
Wind: from the W (260 degrees) at 5 MPH (4 KT):0
Visibility: 10 mile(s):0
Sky conditions: clear
Temperature: 69.1 F (20.6 C)
Dew Point: 27.0 F (-2.8 C)
Relative Humidity: 20%
Pressure (altimeter): 30.09 in. Hg (1018 hPa)
ob: KRIL 240153Z AUTO 26004KT 10SM CLR 21/M03 A3009 RMK AO2 SLP146 T02061028
cycle: 2

Station Type Date Time Source
KRIL TAF 2021/09/23 18:33 UTC NOAA

TAF KRIL 231731Z 2318/2418 27004KT P6SM SKC
FM232000 28009KT P6SM SCT150 BKN200
FM240200 19009KT P6SM FEW150 SCT200
FM240500 05005KT P6SM FEW150 FEW250

Example: see airport list